ANA838 VIDP-RJTT
Flight info
| Callsign | ANA838 |
|---|---|
| Flight time | N/A |
| Altitude | 37000 |
| Route | LKN A201 LSO A599 LINSO/K0926S1130 A599 SGM A581 BIPIP/K0915S1190 A581 WHA R343 PK W116 JTN G327 LAMEN/N0496F390 A593 SADLI Y590 BEDAR Y591 FUE Y23 ARTIC Y71 XAC |
| Aircraft | B789/H-SDE1E2E3FGHIJ2J3J4J5M1RWXY/LB1D1 |
Departure
| Time | 2026-05-05 08:42 |
|---|---|
| Airport | Indira Gandhi International Airport (VIDP) |
Arrival
| Time | N/A |
|---|---|
| Airport | Tokyo Haneda International Airport (RJTT) |
| Time | Latitude | Longitude | Altitude | Speed | Heading |
|---|---|---|---|---|---|
| 2026-05-05 08:11 | 28.55181 | 77.08375 | 756 ft | 0 kts | 328° |
| 2026-05-05 08:24 | 28.55166 | 77.08386 | 751 ft | 3 kts | 328° |
| 2026-05-05 08:24 | 28.55148 | 77.08399 | 751 ft | 3 kts | 328° |
| 2026-05-05 08:25 | 28.55132 | 77.08413 | 751 ft | 3 kts | 308° |
| 2026-05-05 08:25 | 28.55124 | 77.08432 | 751 ft | 3 kts | 269° |
| 2026-05-05 08:25 | 28.55129 | 77.08454 | 751 ft | 3 kts | 242° |
| 2026-05-05 08:25 | 28.55133 | 77.08462 | 751 ft | 0 kts | 242° |
| 2026-05-05 08:29 | 28.55132 | 77.08461 | 751 ft | 0 kts | 242° |
| 2026-05-05 08:29 | 28.55106 | 77.08409 | 752 ft | 11 kts | 239° |
| 2026-05-05 08:30 | 28.55002 | 77.08312 | 752 ft | 9 kts | 197° |
| 2026-05-05 08:30 | 28.54950 | 77.08287 | 752 ft | 8 kts | 217° |
| 2026-05-05 08:30 | 28.54937 | 77.08243 | 753 ft | 4 kts | 284° |
| 2026-05-05 08:30 | 28.54949 | 77.08171 | 756 ft | 17 kts | 282° |
| 2026-05-05 08:31 | 28.54978 | 77.08042 | 754 ft | 17 kts | 287° |
| 2026-05-05 08:31 | 28.55015 | 77.07919 | 753 ft | 16 kts | 285° |
| 2026-05-05 08:31 | 28.55033 | 77.07795 | 756 ft | 16 kts | 280° |
| 2026-05-05 08:31 | 28.55059 | 77.07678 | 756 ft | 15 kts | 283° |
| 2026-05-05 08:32 | 28.55082 | 77.07564 | 753 ft | 15 kts | 285° |
| 2026-05-05 08:32 | 28.55113 | 77.07452 | 755 ft | 15 kts | 284° |
| 2026-05-05 08:32 | 28.55137 | 77.07339 | 755 ft | 15 kts | 283° |
| 2026-05-05 08:32 | 28.55164 | 77.07226 | 755 ft | 15 kts | 285° |
| 2026-05-05 08:33 | 28.55189 | 77.07115 | 752 ft | 15 kts | 284° |
| 2026-05-05 08:33 | 28.55202 | 77.07059 | 753 ft | 0 kts | 284° |
| 2026-05-05 08:34 | 28.55204 | 77.07044 | 754 ft | 9 kts | 276° |
| 2026-05-05 08:34 | 28.55184 | 77.06985 | 752 ft | 8 kts | 222° |
| 2026-05-05 08:34 | 28.55136 | 77.06961 | 753 ft | 8 kts | 195° |
| 2026-05-05 08:35 | 28.55113 | 77.06955 | 750 ft | 0 kts | 194° |
| 2026-05-05 08:37 | 28.55042 | 77.06935 | 750 ft | 13 kts | 194° |
| 2026-05-05 08:38 | 28.54954 | 77.06911 | 754 ft | 12 kts | 190° |
| 2026-05-05 08:38 | 28.54875 | 77.06892 | 752 ft | 11 kts | 193° |
| 2026-05-05 08:38 | 28.54799 | 77.06870 | 752 ft | 11 kts | 196° |
| 2026-05-05 08:38 | 28.54766 | 77.06862 | 751 ft | 0 kts | 191° |
| 2026-05-05 08:39 | 28.54755 | 77.06860 | 752 ft | 9 kts | 189° |
| 2026-05-05 08:39 | 28.54688 | 77.06861 | 753 ft | 9 kts | 162° |
| 2026-05-05 08:39 | 28.54644 | 77.06905 | 751 ft | 8 kts | 119° |
| 2026-05-05 08:39 | 28.54630 | 77.06962 | 754 ft | 7 kts | 103° |
| 2026-05-05 08:40 | 28.54629 | 77.06967 | 755 ft | 0 kts | 103° |
| 2026-05-05 08:40 | 28.54626 | 77.06979 | 755 ft | 5 kts | 104° |
| 2026-05-05 08:41 | 28.54612 | 77.07050 | 754 ft | 13 kts | 102° |
| 2026-05-05 08:41 | 28.54575 | 77.07213 | 753 ft | 45 kts | 104° |
| 2026-05-05 08:41 | 28.54437 | 77.07864 | 751 ft | 123 kts | 104° |
| 2026-05-05 08:41 | 28.54175 | 77.09068 | 756 ft | 188 kts | 104° |
| 2026-05-05 08:42 | 28.53715 | 77.10628 | 962 ft | 225 kts | 112° |
| 2026-05-05 08:42 | 28.53286 | 77.12308 | 1873 ft | 220 kts | 103° |
| 2026-05-05 08:42 | 28.52563 | 77.13876 | 2493 ft | 239 kts | 137° |
| 2026-05-05 08:42 | 28.50990 | 77.14662 | 3033 ft | 259 kts | 174° |
| 2026-05-05 08:43 | 28.49159 | 77.14678 | 3813 ft | 267 kts | 179° |
| 2026-05-05 08:43 | 28.47297 | 77.14666 | 4733 ft | 269 kts | 179° |
| 2026-05-05 08:43 | 28.45415 | 77.14733 | 5578 ft | 273 kts | 174° |
| 2026-05-05 08:43 | 28.43683 | 77.15561 | 6392 ft | 277 kts | 138° |
| 2026-05-05 08:44 | 28.42543 | 77.17350 | 7087 ft | 284 kts | 120° |
| 2026-05-05 08:44 | 28.41567 | 77.19286 | 7802 ft | 289 kts | 121° |
| 2026-05-05 08:44 | 28.40477 | 77.21245 | 8587 ft | 293 kts | 125° |
| 2026-05-05 08:44 | 28.39299 | 77.23171 | 9363 ft | 297 kts | 126° |
| 2026-05-05 08:45 | 28.38843 | 77.23919 | 9642 ft | 300 kts | 125° |
| 2026-05-05 08:45 | 28.37667 | 77.25902 | 10231 ft | 311 kts | 124° |
| 2026-05-05 08:45 | 28.36420 | 77.28039 | 10336 ft | 339 kts | 124° |
| 2026-05-05 08:45 | 28.35057 | 77.30361 | 10370 ft | 366 kts | 124° |
| 2026-05-05 08:46 | 28.33591 | 77.32840 | 10462 ft | 389 kts | 124° |
| 2026-05-05 08:46 | 28.32076 | 77.35402 | 11149 ft | 390 kts | 124° |
| 2026-05-05 08:46 | 28.30557 | 77.37976 | 11764 ft | 395 kts | 124° |
| 2026-05-05 08:46 | 28.29019 | 77.40580 | 12410 ft | 398 kts | 124° |
| 2026-05-05 08:47 | 28.27467 | 77.43203 | 13059 ft | 402 kts | 124° |
| 2026-05-05 08:47 | 28.25898 | 77.45853 | 13703 ft | 406 kts | 124° |
| 2026-05-05 08:47 | 28.24337 | 77.48491 | 14236 ft | 410 kts | 124° |
| 2026-05-05 08:47 | 28.22738 | 77.51189 | 14777 ft | 414 kts | 124° |
| 2026-05-05 08:48 | 28.21128 | 77.53905 | 15329 ft | 418 kts | 125° |
| 2026-05-05 08:48 | 28.19496 | 77.56656 | 15838 ft | 422 kts | 125° |
| 2026-05-05 08:48 | 28.17849 | 77.59429 | 16352 ft | 426 kts | 125° |
| 2026-05-05 08:48 | 28.16185 | 77.62231 | 16854 ft | 430 kts | 125° |
| 2026-05-05 08:49 | 28.14509 | 77.65050 | 17351 ft | 434 kts | 125° |
| 2026-05-05 08:49 | 28.12817 | 77.67895 | 17816 ft | 437 kts | 125° |
| 2026-05-05 08:49 | 28.11113 | 77.70758 | 18277 ft | 441 kts | 125° |
| 2026-05-05 08:49 | 28.09389 | 77.73653 | 18702 ft | 444 kts | 125° |
| 2026-05-05 08:50 | 28.07654 | 77.76564 | 19127 ft | 447 kts | 125° |
| 2026-05-05 08:50 | 28.05910 | 77.79487 | 19530 ft | 450 kts | 126° |
| 2026-05-05 08:50 | 28.04160 | 77.82418 | 19942 ft | 453 kts | 126° |
| 2026-05-05 08:50 | 28.02399 | 77.85368 | 20341 ft | 455 kts | 126° |
| 2026-05-05 08:51 | 28.00573 | 77.88423 | 20742 ft | 459 kts | 126° |
| 2026-05-05 08:51 | 27.98801 | 77.91386 | 21104 ft | 461 kts | 126° |
| 2026-05-05 08:51 | 27.96997 | 77.94400 | 21465 ft | 464 kts | 126° |
| 2026-05-05 08:51 | 27.95191 | 77.97415 | 21831 ft | 467 kts | 126° |
| 2026-05-05 08:52 | 27.93358 | 78.00474 | 22178 ft | 470 kts | 126° |
| 2026-05-05 08:52 | 27.91495 | 78.03581 | 22514 ft | 472 kts | 126° |
| 2026-05-05 08:52 | 27.89703 | 78.06566 | 22843 ft | 475 kts | 126° |
| 2026-05-05 08:52 | 27.87825 | 78.09694 | 23177 ft | 477 kts | 126° |
| 2026-05-05 08:53 | 27.85907 | 78.12884 | 23491 ft | 480 kts | 126° |
| 2026-05-05 08:53 | 27.84028 | 78.16007 | 23722 ft | 482 kts | 126° |
| 2026-05-05 08:53 | 27.82349 | 78.19297 | 23963 ft | 486 kts | 115° |
| 2026-05-05 08:53 | 27.81006 | 78.22829 | 24187 ft | 489 kts | 114° |
| 2026-05-05 08:54 | 27.79677 | 78.26372 | 24434 ft | 491 kts | 114° |
| 2026-05-05 08:54 | 27.78326 | 78.29929 | 24654 ft | 494 kts | 115° |
| 2026-05-05 08:54 | 27.76951 | 78.33496 | 24897 ft | 496 kts | 115° |
| 2026-05-05 08:54 | 27.75594 | 78.37030 | 25136 ft | 498 kts | 115° |
| 2026-05-05 08:55 | 27.74226 | 78.40619 | 25356 ft | 500 kts | 115° |
| 2026-05-05 08:55 | 27.72844 | 78.44235 | 25603 ft | 502 kts | 115° |
| 2026-05-05 08:55 | 27.71454 | 78.47853 | 25834 ft | 504 kts | 115° |
| 2026-05-05 08:55 | 27.70055 | 78.51490 | 26077 ft | 506 kts | 115° |
| 2026-05-05 08:56 | 27.68653 | 78.55141 | 26296 ft | 508 kts | 115° |
| 2026-05-05 08:56 | 27.67242 | 78.58815 | 26531 ft | 510 kts | 115° |
| 2026-05-05 08:56 | 27.65822 | 78.62502 | 26771 ft | 512 kts | 115° |
| 2026-05-05 08:56 | 27.64398 | 78.66195 | 26999 ft | 515 kts | 115° |
| 2026-05-05 08:57 | 27.62967 | 78.69905 | 27231 ft | 517 kts | 115° |
| 2026-05-05 08:57 | 27.61561 | 78.73550 | 27471 ft | 519 kts | 115° |
| 2026-05-05 08:57 | 27.60567 | 78.76121 | 27617 ft | 520 kts | 115° |
| 2026-05-05 08:57 | 27.58648 | 78.81081 | 27930 ft | 523 kts | 115° |
| 2026-05-05 08:58 | 27.57193 | 78.84840 | 28179 ft | 525 kts | 115° |
| 2026-05-05 08:58 | 27.55729 | 78.88617 | 28415 ft | 527 kts | 115° |
| 2026-05-05 08:58 | 27.54254 | 78.92419 | 28663 ft | 529 kts | 115° |
| 2026-05-05 08:58 | 27.52780 | 78.96215 | 28892 ft | 531 kts | 115° |
| 2026-05-05 08:59 | 27.51829 | 78.98663 | 29041 ft | 532 kts | 115° |
| 2026-05-05 08:59 | 27.49809 | 79.03855 | 29371 ft | 535 kts | 116° |
| 2026-05-05 08:59 | 27.48801 | 79.06444 | 29536 ft | 536 kts | 116° |
| 2026-05-05 08:59 | 27.47294 | 79.10311 | 29778 ft | 538 kts | 116° |
| 2026-05-05 09:00 | 27.45808 | 79.14122 | 30005 ft | 540 kts | 116° |
| 2026-05-05 09:00 | 27.44272 | 79.18054 | 30199 ft | 542 kts | 116° |
| 2026-05-05 09:00 | 27.42752 | 79.21945 | 30391 ft | 543 kts | 116° |
| 2026-05-05 09:00 | 27.41226 | 79.25845 | 30665 ft | 543 kts | 116° |
| 2026-05-05 09:01 | 27.39704 | 79.29731 | 30945 ft | 543 kts | 116° |
| 2026-05-05 09:01 | 27.38198 | 79.33574 | 31206 ft | 544 kts | 116° |
| 2026-05-05 09:01 | 27.36654 | 79.37508 | 31485 ft | 544 kts | 116° |
| 2026-05-05 09:01 | 27.35124 | 79.41403 | 31766 ft | 544 kts | 116° |
| 2026-05-05 09:02 | 27.33591 | 79.45302 | 32045 ft | 544 kts | 116° |
| 2026-05-05 09:02 | 27.32080 | 79.49143 | 32340 ft | 545 kts | 116° |
| 2026-05-05 09:02 | 27.30544 | 79.53040 | 32647 ft | 545 kts | 116° |
| 2026-05-05 09:02 | 27.29008 | 79.56937 | 32945 ft | 545 kts | 117° |
| 2026-05-05 09:03 | 27.27473 | 79.60826 | 33248 ft | 545 kts | 117° |
| 2026-05-05 09:03 | 27.25933 | 79.64722 | 33546 ft | 545 kts | 117° |
| 2026-05-05 09:03 | 27.24390 | 79.68624 | 33863 ft | 545 kts | 117° |
| 2026-05-05 09:03 | 27.22850 | 79.72515 | 34111 ft | 546 kts | 117° |
| 2026-05-05 09:04 | 27.21322 | 79.76373 | 34367 ft | 546 kts | 117° |
| 2026-05-05 09:04 | 27.19741 | 79.80358 | 34608 ft | 546 kts | 117° |
| 2026-05-05 09:04 | 27.18194 | 79.84255 | 34849 ft | 546 kts | 117° |
| 2026-05-05 09:04 | 27.16650 | 79.88138 | 35109 ft | 546 kts | 117° |
| 2026-05-05 09:05 | 27.15090 | 79.92060 | 35371 ft | 546 kts | 117° |
| 2026-05-05 09:05 | 27.13536 | 79.95964 | 35632 ft | 546 kts | 117° |
| 2026-05-05 09:05 | 27.11983 | 79.99859 | 35882 ft | 546 kts | 117° |
| 2026-05-05 09:05 | 27.10432 | 80.03747 | 36130 ft | 546 kts | 117° |
| 2026-05-05 09:06 | 27.08895 | 80.07595 | 36369 ft | 547 kts | 117° |
| 2026-05-05 09:06 | 27.07341 | 80.11485 | 36622 ft | 546 kts | 117° |
| 2026-05-05 09:06 | 27.05784 | 80.15375 | 36882 ft | 546 kts | 117° |
| 2026-05-05 09:07 | 27.02653 | 80.23190 | 36867 ft | 546 kts | 117° |
| 2026-05-05 09:07 | 26.99556 | 80.30907 | 36871 ft | 540 kts | 117° |
| 2026-05-05 09:08 | 26.96477 | 80.38557 | 36867 ft | 541 kts | 117° |
| 2026-05-05 09:08 | 26.93365 | 80.46282 | 36865 ft | 541 kts | 117° |
| 2026-05-05 09:09 | 26.90254 | 80.53985 | 36865 ft | 541 kts | 117° |
| 2026-05-05 09:09 | 26.87146 | 80.61668 | 36868 ft | 541 kts | 117° |
| 2026-05-05 09:10 | 26.84054 | 80.69298 | 36871 ft | 541 kts | 117° |
| 2026-05-05 09:10 | 26.80933 | 80.76985 | 36877 ft | 541 kts | 117° |
| 2026-05-05 09:11 | 26.77815 | 80.84649 | 36878 ft | 540 kts | 117° |
| 2026-05-05 09:11 | 26.75069 | 80.92465 | 36912 ft | 542 kts | 108° |
| 2026-05-05 09:12 | 26.72946 | 81.00592 | 36895 ft | 544 kts | 109° |
| 2026-05-05 09:12 | 26.70812 | 81.08715 | 36890 ft | 544 kts | 109° |
| 2026-05-05 09:13 | 26.68696 | 81.16765 | 36891 ft | 543 kts | 109° |
| 2026-05-05 09:13 | 26.66556 | 81.24873 | 36891 ft | 542 kts | 109° |
| 2026-05-05 09:14 | 26.64423 | 81.32942 | 36887 ft | 541 kts | 109° |
| 2026-05-05 09:14 | 26.62285 | 81.41003 | 36886 ft | 540 kts | 109° |
| 2026-05-05 09:15 | 26.60126 | 81.49128 | 36886 ft | 540 kts | 109° |
| 2026-05-05 09:15 | 26.57990 | 81.57146 | 36886 ft | 539 kts | 110° |
| 2026-05-05 09:16 | 26.55849 | 81.65162 | 36885 ft | 538 kts | 110° |
| 2026-05-05 09:16 | 26.53705 | 81.73168 | 36885 ft | 538 kts | 110° |
| 2026-05-05 09:17 | 26.51556 | 81.81177 | 36886 ft | 538 kts | 110° |
| 2026-05-05 09:17 | 26.49400 | 81.89189 | 36886 ft | 538 kts | 110° |
| 2026-05-05 09:18 | 26.47250 | 81.97159 | 36879 ft | 538 kts | 110° |
| 2026-05-05 09:18 | 26.45085 | 82.05167 | 36882 ft | 540 kts | 110° |
| 2026-05-05 09:19 | 26.42904 | 82.13215 | 36885 ft | 541 kts | 110° |
| 2026-05-05 09:19 | 26.40735 | 82.21198 | 36887 ft | 541 kts | 110° |
| 2026-05-05 09:20 | 26.38534 | 82.29278 | 36883 ft | 541 kts | 110° |
| 2026-05-05 09:20 | 26.36350 | 82.37277 | 36883 ft | 542 kts | 110° |
| 2026-05-05 09:21 | 26.34152 | 82.45308 | 36867 ft | 542 kts | 110° |
| 2026-05-05 09:21 | 26.31953 | 82.53326 | 36862 ft | 541 kts | 110° |
| 2026-05-05 09:22 | 26.29743 | 82.61359 | 36854 ft | 541 kts | 110° |
| 2026-05-05 09:22 | 26.27532 | 82.69381 | 36856 ft | 540 kts | 110° |
| 2026-05-05 09:23 | 26.25317 | 82.77398 | 36859 ft | 541 kts | 110° |
| 2026-05-05 09:23 | 26.23098 | 82.85410 | 36858 ft | 540 kts | 110° |
| 2026-05-05 09:24 | 26.20885 | 82.93378 | 36861 ft | 540 kts | 110° |
| 2026-05-05 09:24 | 26.18669 | 83.01342 | 36856 ft | 541 kts | 110° |
| 2026-05-05 09:25 | 26.16438 | 83.09339 | 36862 ft | 541 kts | 110° |
| 2026-05-05 09:25 | 26.14201 | 83.17340 | 36858 ft | 540 kts | 111° |
| 2026-05-05 09:26 | 26.11960 | 83.25335 | 36853 ft | 540 kts | 111° |
| 2026-05-05 09:26 | 26.09718 | 83.33316 | 36849 ft | 540 kts | 111° |
| 2026-05-05 09:27 | 26.07470 | 83.41298 | 36850 ft | 541 kts | 111° |
| 2026-05-05 09:27 | 26.05234 | 83.49222 | 36847 ft | 540 kts | 111° |
| 2026-05-05 09:28 | 26.02978 | 83.57193 | 36852 ft | 540 kts | 111° |
| 2026-05-05 09:28 | 26.00719 | 83.65180 | 36852 ft | 541 kts | 111° |
| 2026-05-05 09:29 | 25.98455 | 83.73174 | 36842 ft | 541 kts | 111° |
| 2026-05-05 09:29 | 25.96203 | 83.81100 | 36848 ft | 541 kts | 111° |
| 2026-05-05 09:30 | 25.93935 | 83.89071 | 36843 ft | 541 kts | 111° |
| 2026-05-05 09:30 | 25.91663 | 83.97033 | 36841 ft | 541 kts | 111° |
| 2026-05-05 09:31 | 25.89386 | 84.04999 | 36842 ft | 541 kts | 111° |
| 2026-05-05 09:31 | 25.87106 | 84.12952 | 36838 ft | 541 kts | 111° |
| 2026-05-05 09:32 | 25.84819 | 84.20913 | 36842 ft | 541 kts | 111° |
| 2026-05-05 09:32 | 25.82523 | 84.28887 | 36839 ft | 542 kts | 111° |
| 2026-05-05 09:33 | 25.80221 | 84.36863 | 36841 ft | 542 kts | 111° |
| 2026-05-05 09:33 | 25.77915 | 84.44838 | 36839 ft | 543 kts | 111° |
| 2026-05-05 09:34 | 25.75600 | 84.52824 | 36841 ft | 542 kts | 111° |
| 2026-05-05 09:34 | 25.73294 | 84.60757 | 36836 ft | 542 kts | 112° |
| 2026-05-05 09:35 | 25.70976 | 84.68719 | 36833 ft | 542 kts | 112° |
| 2026-05-05 09:35 | 25.67894 | 84.79275 | 36831 ft | 542 kts | 112° |
| 2026-05-05 09:36 | 25.65527 | 84.87361 | 36829 ft | 541 kts | 112° |
| 2026-05-05 09:36 | 25.63196 | 84.95305 | 36824 ft | 542 kts | 112° |
| 2026-05-05 09:37 | 25.60891 | 85.03145 | 36824 ft | 543 kts | 112° |
| 2026-05-05 09:37 | 25.58726 | 85.11238 | 36864 ft | 545 kts | 103° |
| 2026-05-05 09:38 | 25.57299 | 85.19510 | 36829 ft | 547 kts | 104° |
| 2026-05-05 09:38 | 25.55848 | 85.27785 | 36845 ft | 547 kts | 104° |
| 2026-05-05 09:39 | 25.54400 | 85.36060 | 36840 ft | 546 kts | 104° |
| 2026-05-05 09:39 | 25.52951 | 85.44286 | 36846 ft | 547 kts | 104° |
| 2026-05-05 09:40 | 25.51504 | 85.52488 | 36852 ft | 547 kts | 104° |
| 2026-05-05 09:40 | 25.50027 | 85.60825 | 36844 ft | 546 kts | 105° |
| 2026-05-05 09:41 | 25.48559 | 85.69086 | 36841 ft | 546 kts | 105° |
| 2026-05-05 09:41 | 25.47085 | 85.77349 | 36842 ft | 547 kts | 105° |
| 2026-05-05 09:42 | 25.45607 | 85.85605 | 36836 ft | 547 kts | 105° |
| 2026-05-05 09:42 | 25.44121 | 85.93881 | 36835 ft | 548 kts | 105° |
| 2026-05-05 09:43 | 25.42637 | 86.02117 | 36835 ft | 548 kts | 105° |
| 2026-05-05 09:43 | 25.41141 | 86.10393 | 36832 ft | 549 kts | 105° |
| 2026-05-05 09:44 | 25.39652 | 86.18603 | 36840 ft | 549 kts | 105° |
| 2026-05-05 09:44 | 25.38215 | 86.26501 | 36841 ft | 550 kts | 105° |
| 2026-05-05 09:45 | 25.36694 | 86.34835 | 36840 ft | 549 kts | 105° |
| 2026-05-05 09:45 | 25.35112 | 86.43071 | 36848 ft | 546 kts | 112° |
| 2026-05-05 09:46 | 25.32179 | 86.50759 | 36857 ft | 541 kts | 119° |
| 2026-05-05 09:46 | 25.29027 | 86.58320 | 36858 ft | 541 kts | 119° |
| 2026-05-05 09:47 | 25.25904 | 86.65874 | 36867 ft | 540 kts | 119° |
| 2026-05-05 09:47 | 25.22760 | 86.73417 | 36862 ft | 540 kts | 119° |
| 2026-05-05 09:48 | 25.19620 | 86.80967 | 36853 ft | 540 kts | 119° |
| 2026-05-05 09:48 | 25.16480 | 86.88488 | 36855 ft | 539 kts | 119° |
| 2026-05-05 09:49 | 25.13342 | 86.95997 | 36859 ft | 538 kts | 119° |
| 2026-05-05 09:49 | 25.10206 | 87.03490 | 36848 ft | 537 kts | 119° |
| 2026-05-05 09:50 | 25.07071 | 87.10964 | 36850 ft | 536 kts | 119° |
| 2026-05-05 09:50 | 25.03931 | 87.18438 | 36853 ft | 536 kts | 119° |
| 2026-05-05 09:51 | 25.00788 | 87.25905 | 36851 ft | 536 kts | 119° |
| 2026-05-05 09:51 | 24.97642 | 87.33370 | 36859 ft | 535 kts | 119° |
| 2026-05-05 09:52 | 24.94463 | 87.40898 | 36862 ft | 535 kts | 119° |
| 2026-05-05 09:52 | 24.91317 | 87.48337 | 36875 ft | 535 kts | 119° |
| 2026-05-05 09:53 | 24.88194 | 87.55709 | 36880 ft | 534 kts | 119° |
| 2026-05-05 09:53 | 24.85046 | 87.63125 | 36880 ft | 534 kts | 119° |
| 2026-05-05 09:54 | 24.81893 | 87.70543 | 36877 ft | 534 kts | 119° |
| 2026-05-05 09:54 | 24.78741 | 87.77945 | 36869 ft | 534 kts | 119° |
| 2026-05-05 09:55 | 24.75641 | 87.85369 | 36869 ft | 535 kts | 117° |
| 2026-05-05 09:55 | 24.72612 | 87.92843 | 36863 ft | 534 kts | 118° |
| 2026-05-05 09:56 | 24.69526 | 88.00268 | 36860 ft | 534 kts | 118° |
| 2026-05-05 09:56 | 24.66464 | 88.07715 | 36856 ft | 534 kts | 119° |
| 2026-05-05 09:57 | 24.63370 | 88.15077 | 36858 ft | 534 kts | 118° |
| 2026-05-05 09:57 | 24.60288 | 88.22495 | 36853 ft | 534 kts | 119° |
| 2026-05-05 09:58 | 24.57184 | 88.29894 | 36852 ft | 535 kts | 119° |
| 2026-05-05 09:58 | 24.54052 | 88.37380 | 36851 ft | 536 kts | 119° |
| 2026-05-05 09:59 | 24.50931 | 88.44812 | 36848 ft | 537 kts | 119° |
| 2026-05-05 09:59 | 24.47798 | 88.52267 | 36843 ft | 537 kts | 119° |
| 2026-05-05 10:00 | 24.44680 | 88.59685 | 36841 ft | 538 kts | 117° |
| 2026-05-05 10:00 | 24.43488 | 88.63595 | 36879 ft | 544 kts | 105° |
| 2026-05-05 10:00 | 24.42656 | 88.67669 | 36855 ft | 546 kts | 105° |
| 2026-05-05 10:01 | 24.41056 | 88.75811 | 36861 ft | 545 kts | 105° |
| 2026-05-05 10:01 | 24.39409 | 88.83938 | 36859 ft | 545 kts | 105° |
| 2026-05-05 10:02 | 24.37785 | 88.92054 | 36854 ft | 545 kts | 105° |
| 2026-05-05 10:02 | 24.36141 | 89.00176 | 36852 ft | 545 kts | 105° |
| 2026-05-05 10:03 | 24.34510 | 89.08248 | 36849 ft | 544 kts | 105° |
| 2026-05-05 10:03 | 24.32863 | 89.16357 | 36847 ft | 545 kts | 105° |
| 2026-05-05 10:04 | 24.31211 | 89.24477 | 36840 ft | 545 kts | 105° |
| 2026-05-05 10:04 | 24.29565 | 89.32542 | 36838 ft | 545 kts | 105° |
| 2026-05-05 10:05 | 24.27895 | 89.40699 | 36843 ft | 545 kts | 105° |
| 2026-05-05 10:05 | 24.26501 | 89.47492 | 36842 ft | 544 kts | 105° |
| 2026-05-05 10:06 | 24.24852 | 89.55502 | 36836 ft | 542 kts | 105° |
| 2026-05-05 10:06 | 24.23185 | 89.63581 | 36837 ft | 542 kts | 105° |
| 2026-05-05 10:07 | 24.21518 | 89.71640 | 36836 ft | 542 kts | 105° |
| 2026-05-05 10:07 | 24.19844 | 89.79705 | 36833 ft | 542 kts | 105° |
| 2026-05-05 10:08 | 24.18175 | 89.87725 | 36830 ft | 543 kts | 105° |
| 2026-05-05 10:08 | 24.16509 | 89.95712 | 36834 ft | 542 kts | 105° |
| 2026-05-05 10:09 | 24.14806 | 90.03847 | 36828 ft | 542 kts | 105° |
| 2026-05-05 10:09 | 24.13132 | 90.11825 | 36825 ft | 541 kts | 105° |
| 2026-05-05 10:10 | 24.11428 | 90.19924 | 36824 ft | 541 kts | 105° |
| 2026-05-05 10:10 | 24.09735 | 90.27949 | 36823 ft | 541 kts | 105° |
| 2026-05-05 10:11 | 24.08036 | 90.35980 | 36824 ft | 541 kts | 105° |
| 2026-05-05 10:11 | 24.06337 | 90.43984 | 36826 ft | 540 kts | 106° |
| 2026-05-05 10:12 | 24.04621 | 90.51993 | 36825 ft | 540 kts | 106° |
| 2026-05-05 10:12 | 24.02907 | 90.59989 | 36821 ft | 540 kts | 106° |
| 2026-05-05 10:13 | 24.01190 | 90.67972 | 36820 ft | 539 kts | 106° |
| 2026-05-05 10:13 | 23.99475 | 90.75924 | 36814 ft | 539 kts | 106° |
| 2026-05-05 10:14 | 23.97749 | 90.83909 | 36814 ft | 539 kts | 106° |
| 2026-05-05 10:14 | 23.96019 | 90.91890 | 36812 ft | 539 kts | 106° |
| 2026-05-05 10:15 | 23.94284 | 90.99872 | 36821 ft | 540 kts | 106° |
| 2026-05-05 10:15 | 23.92543 | 91.07861 | 36821 ft | 540 kts | 106° |
| 2026-05-05 10:16 | 23.90799 | 91.15845 | 36821 ft | 540 kts | 106° |
| 2026-05-05 10:16 | 23.89051 | 91.23831 | 36823 ft | 541 kts | 104° |
| 2026-05-05 10:17 | 23.87464 | 91.31868 | 36835 ft | 541 kts | 105° |
| 2026-05-05 10:17 | 23.85828 | 91.39896 | 36834 ft | 541 kts | 104° |
| 2026-05-05 10:18 | 23.84242 | 91.47942 | 36830 ft | 541 kts | 105° |
| 2026-05-05 10:18 | 23.82609 | 91.55969 | 36828 ft | 541 kts | 104° |
| 2026-05-05 10:19 | 23.81008 | 91.63984 | 36827 ft | 540 kts | 104° |
| 2026-05-05 10:19 | 23.79381 | 91.71986 | 36829 ft | 540 kts | 104° |
| 2026-05-05 10:20 | 23.77777 | 91.79936 | 36828 ft | 540 kts | 104° |
| 2026-05-05 10:20 | 23.76145 | 91.87947 | 36830 ft | 540 kts | 104° |
| 2026-05-05 10:21 | 23.74517 | 91.95950 | 36828 ft | 540 kts | 104° |
| 2026-05-05 10:21 | 23.72880 | 92.03951 | 36834 ft | 540 kts | 104° |
| 2026-05-05 10:22 | 23.71242 | 92.11950 | 36835 ft | 540 kts | 104° |
| 2026-05-05 10:22 | 23.69598 | 92.19950 | 36841 ft | 540 kts | 104° |
| 2026-05-05 10:23 | 23.67960 | 92.27899 | 36847 ft | 539 kts | 104° |
| 2026-05-05 10:23 | 23.66307 | 92.35902 | 36881 ft | 539 kts | 104° |
| 2026-05-05 10:24 | 23.64653 | 92.43881 | 36863 ft | 539 kts | 104° |
| 2026-05-05 10:24 | 23.62998 | 92.51853 | 36867 ft | 539 kts | 104° |
| 2026-05-05 10:25 | 23.61338 | 92.59819 | 36878 ft | 539 kts | 104° |
| 2026-05-05 10:25 | 23.59834 | 92.67823 | 36877 ft | 540 kts | 103° |
| 2026-05-05 10:26 | 23.58286 | 92.75831 | 36899 ft | 539 kts | 103° |
| 2026-05-05 10:26 | 23.56839 | 92.83850 | 36886 ft | 540 kts | 103° |
| 2026-05-05 10:27 | 23.55323 | 92.91866 | 36886 ft | 539 kts | 103° |
| 2026-05-05 10:27 | 23.53852 | 92.99813 | 36899 ft | 538 kts | 103° |
| 2026-05-05 10:28 | 23.52349 | 93.07807 | 36893 ft | 538 kts | 103° |
| 2026-05-05 10:28 | 23.50850 | 93.15803 | 36905 ft | 538 kts | 103° |
| 2026-05-05 10:29 | 23.49344 | 93.23794 | 36907 ft | 537 kts | 103° |
| 2026-05-05 10:29 | 23.47841 | 93.31749 | 36904 ft | 536 kts | 103° |
| 2026-05-05 10:30 | 23.46335 | 93.39705 | 36904 ft | 535 kts | 103° |
| 2026-05-05 10:30 | 23.44934 | 93.47661 | 36914 ft | 535 kts | 96° |
| 2026-05-05 10:31 | 23.44176 | 93.55754 | 36911 ft | 538 kts | 97° |
| 2026-05-05 10:31 | 23.43392 | 93.63839 | 36909 ft | 538 kts | 97° |
| 2026-05-05 10:32 | 23.42611 | 93.71896 | 36884 ft | 537 kts | 97° |
| 2026-05-05 10:32 | 23.41824 | 93.79996 | 36872 ft | 536 kts | 97° |
| 2026-05-05 10:33 | 23.41029 | 93.88086 | 36863 ft | 539 kts | 97° |
| 2026-05-05 10:33 | 23.40231 | 93.96206 | 36867 ft | 540 kts | 97° |
| 2026-05-05 10:34 | 23.39425 | 94.04331 | 36849 ft | 539 kts | 97° |
| 2026-05-05 10:34 | 23.38619 | 94.12441 | 36834 ft | 539 kts | 97° |
| 2026-05-05 10:35 | 23.37807 | 94.20548 | 36814 ft | 538 kts | 97° |
| 2026-05-05 10:35 | 23.36991 | 94.28656 | 36818 ft | 539 kts | 97° |
| 2026-05-05 10:36 | 23.36170 | 94.36771 | 36805 ft | 539 kts | 97° |
| 2026-05-05 10:36 | 23.35347 | 94.44871 | 36801 ft | 539 kts | 97° |
| 2026-05-05 10:37 | 23.34523 | 94.52935 | 36803 ft | 539 kts | 97° |
| 2026-05-05 10:37 | 23.33691 | 94.61031 | 36801 ft | 539 kts | 97° |
| 2026-05-05 10:38 | 23.32854 | 94.69137 | 36807 ft | 539 kts | 97° |
| 2026-05-05 10:38 | 23.32015 | 94.77218 | 36815 ft | 539 kts | 97° |
| 2026-05-05 10:39 | 23.31167 | 94.85352 | 36804 ft | 539 kts | 97° |
| 2026-05-05 10:39 | 23.30317 | 94.93459 | 36812 ft | 539 kts | 97° |
| 2026-05-05 10:40 | 23.29463 | 95.01560 | 36805 ft | 538 kts | 97° |
| 2026-05-05 10:40 | 23.28606 | 95.09653 | 36798 ft | 538 kts | 97° |
| 2026-05-05 10:41 | 23.27744 | 95.17751 | 36799 ft | 538 kts | 97° |
| 2026-05-05 10:41 | 23.26880 | 95.25839 | 36784 ft | 538 kts | 97° |
| 2026-05-05 10:42 | 23.25575 | 95.37961 | 36784 ft | 537 kts | 97° |
| 2026-05-05 10:43 | 23.24707 | 95.45985 | 36769 ft | 537 kts | 97° |
| 2026-05-05 10:43 | 23.23829 | 95.54055 | 36777 ft | 536 kts | 97° |
| 2026-05-05 10:44 | 23.22948 | 95.62114 | 36772 ft | 536 kts | 97° |
| 2026-05-05 10:44 | 23.22063 | 95.70168 | 36765 ft | 536 kts | 97° |
| 2026-05-05 10:45 | 23.21174 | 95.78221 | 36770 ft | 536 kts | 97° |
| 2026-05-05 10:45 | 23.20289 | 95.86205 | 36771 ft | 536 kts | 97° |
| 2026-05-05 10:46 | 23.19538 | 95.92952 | 36762 ft | 535 kts | 97° |
| 2026-05-05 10:46 | 23.18492 | 96.02303 | 36771 ft | 536 kts | 97° |
| 2026-05-05 10:47 | 23.17735 | 96.09037 | 36769 ft | 536 kts | 97° |
| 2026-05-05 10:47 | 23.16826 | 96.17087 | 36778 ft | 536 kts | 97° |
| 2026-05-05 10:48 | 23.15921 | 96.25073 | 36776 ft | 536 kts | 97° |
| 2026-05-05 10:48 | 23.15006 | 96.33097 | 36790 ft | 535 kts | 97° |
| 2026-05-05 10:49 | 23.14089 | 96.41120 | 36794 ft | 534 kts | 97° |
| 2026-05-05 10:49 | 23.13169 | 96.49115 | 36800 ft | 534 kts | 97° |
| 2026-05-05 10:50 | 23.12246 | 96.57108 | 36805 ft | 533 kts | 97° |
| 2026-05-05 10:50 | 23.11319 | 96.65098 | 36817 ft | 533 kts | 97° |
| 2026-05-05 10:51 | 23.10388 | 96.73092 | 36824 ft | 533 kts | 97° |
| 2026-05-05 10:51 | 23.09453 | 96.81080 | 36837 ft | 532 kts | 97° |
| 2026-05-05 10:52 | 23.08520 | 96.89012 | 36842 ft | 533 kts | 97° |
| 2026-05-05 10:52 | 23.07577 | 96.97002 | 36857 ft | 534 kts | 97° |
| 2026-05-05 10:53 | 23.06628 | 97.04996 | 36857 ft | 533 kts | 97° |
| 2026-05-05 10:53 | 23.05677 | 97.12987 | 36871 ft | 534 kts | 97° |
| 2026-05-05 10:54 | 23.04721 | 97.20976 | 36863 ft | 534 kts | 97° |
| 2026-05-05 10:54 | 23.03760 | 97.28977 | 36868 ft | 533 kts | 97° |
| 2026-05-05 10:55 | 23.02801 | 97.36917 | 36853 ft | 533 kts | 97° |
| 2026-05-05 10:55 | 23.01828 | 97.44952 | 36845 ft | 533 kts | 97° |
| 2026-05-05 10:56 | 23.00861 | 97.52894 | 36841 ft | 533 kts | 98° |
| 2026-05-05 10:56 | 22.99887 | 97.60860 | 36847 ft | 533 kts | 98° |
| 2026-05-05 10:57 | 22.98906 | 97.68851 | 36848 ft | 533 kts | 98° |
| 2026-05-05 10:57 | 22.98913 | 97.76841 | 36875 ft | 531 kts | 76° |
| 2026-05-05 10:58 | 23.01176 | 97.84432 | 36863 ft | 529 kts | 68° |
| 2026-05-05 10:58 | 23.03761 | 97.91913 | 36866 ft | 529 kts | 68° |
| 2026-05-05 10:59 | 23.06303 | 97.99378 | 36862 ft | 530 kts | 68° |
| 2026-05-05 10:59 | 23.08869 | 98.06877 | 36869 ft | 530 kts | 68° |
| 2026-05-05 11:00 | 23.11424 | 98.14381 | 36869 ft | 530 kts | 68° |
| 2026-05-05 11:00 | 23.13982 | 98.21899 | 36874 ft | 530 kts | 68° |
| 2026-05-05 11:01 | 23.16531 | 98.29404 | 36855 ft | 529 kts | 68° |
| 2026-05-05 11:01 | 23.19075 | 98.36908 | 36856 ft | 529 kts | 68° |
| 2026-05-05 11:02 | 23.21616 | 98.44417 | 36861 ft | 530 kts | 68° |
| 2026-05-05 11:02 | 23.24160 | 98.51948 | 36849 ft | 530 kts | 68° |
| 2026-05-05 11:03 | 23.26683 | 98.59431 | 36850 ft | 530 kts | 68° |
| 2026-05-05 11:03 | 23.29220 | 98.66969 | 36857 ft | 530 kts | 68° |
| 2026-05-05 11:04 | 23.31756 | 98.74516 | 36850 ft | 531 kts | 68° |
| 2026-05-05 11:04 | 23.34288 | 98.82065 | 36849 ft | 531 kts | 68° |
| 2026-05-05 11:05 | 23.36815 | 98.89614 | 36849 ft | 530 kts | 68° |
| 2026-05-05 11:05 | 23.39199 | 98.97210 | 36865 ft | 530 kts | 69° |
| 2026-05-05 11:06 | 23.41621 | 99.04734 | 36857 ft | 531 kts | 69° |
| 2026-05-05 11:06 | 23.43957 | 99.12346 | 36864 ft | 529 kts | 69° |
| 2026-05-05 11:07 | 23.46348 | 99.19928 | 36865 ft | 528 kts | 69° |
| 2026-05-05 11:07 | 23.48697 | 99.27523 | 36851 ft | 528 kts | 69° |
| 2026-05-05 11:08 | 23.51054 | 99.35085 | 36876 ft | 527 kts | 69° |
| 2026-05-05 11:08 | 23.53712 | 99.42520 | 36909 ft | 524 kts | 57° |
| 2026-05-05 11:09 | 23.57340 | 99.49452 | 36889 ft | 526 kts | 57° |
| 2026-05-05 11:09 | 23.60961 | 99.56380 | 36886 ft | 527 kts | 58° |
| 2026-05-05 11:10 | 23.64578 | 99.63326 | 36889 ft | 526 kts | 58° |
| 2026-05-05 11:10 | 23.68200 | 99.70274 | 36891 ft | 526 kts | 58° |
| 2026-05-05 11:11 | 23.71777 | 99.77161 | 36889 ft | 525 kts | 58° |
| 2026-05-05 11:11 | 23.75381 | 99.84098 | 36894 ft | 526 kts | 58° |
| 2026-05-05 11:12 | 23.78998 | 99.91079 | 36887 ft | 526 kts | 58° |
| 2026-05-05 11:12 | 23.82601 | 99.98037 | 36890 ft | 526 kts | 58° |
| 2026-05-05 11:13 | 23.86194 | 100.04987 | 36896 ft | 526 kts | 58° |
| 2026-05-05 11:13 | 23.89784 | 100.11943 | 36891 ft | 525 kts | 58° |
| 2026-05-05 11:14 | 23.93374 | 100.18904 | 36895 ft | 526 kts | 58° |
| 2026-05-05 11:14 | 23.96970 | 100.25892 | 36903 ft | 526 kts | 58° |
| 2026-05-05 11:15 | 24.00554 | 100.32865 | 36897 ft | 526 kts | 58° |
| 2026-05-05 11:15 | 24.04127 | 100.39826 | 36915 ft | 527 kts | 57° |
| 2026-05-05 11:16 | 24.07704 | 100.46806 | 36915 ft | 525 kts | 57° |
| 2026-05-05 11:16 | 24.11290 | 100.53810 | 36916 ft | 525 kts | 57° |
| 2026-05-05 11:17 | 24.14831 | 100.60804 | 36917 ft | 525 kts | 58° |
| 2026-05-05 11:17 | 24.16540 | 100.64243 | 38392 ft | 525 kts | 60° |
| 2026-05-05 11:17 | 24.18237 | 100.67632 | 38254 ft | 530 kts | 62° |
| 2026-05-05 11:17 | 24.20068 | 100.71264 | 38112 ft | 533 kts | 64° |
| 2026-05-05 11:18 | 24.21812 | 100.74755 | 37996 ft | 533 kts | 63° |
| 2026-05-05 11:18 | 24.23567 | 100.78271 | 37886 ft | 520 kts | 63° |
| 2026-05-05 11:18 | 24.25251 | 100.81644 | 37733 ft | 519 kts | 59° |
| 2026-05-05 11:18 | 24.26977 | 100.85085 | 36237 ft | 520 kts | 58° |
| 2026-05-05 11:19 | 24.28692 | 100.88521 | 36367 ft | 511 kts | 58° |
| 2026-05-05 11:19 | 24.30390 | 100.91929 | 36484 ft | 514 kts | 58° |
| 2026-05-05 11:19 | 24.32127 | 100.95408 | 36642 ft | 518 kts | 58° |
| 2026-05-05 11:19 | 24.33860 | 100.98884 | 36760 ft | 522 kts | 58° |
| 2026-05-05 11:20 | 24.35604 | 101.02389 | 36909 ft | 525 kts | 58° |
| 2026-05-05 11:20 | 24.39114 | 101.09451 | 36938 ft | 527 kts | 58° |
| 2026-05-05 11:21 | 24.42615 | 101.16504 | 36940 ft | 525 kts | 58° |
| 2026-05-05 11:21 | 24.46103 | 101.23537 | 36939 ft | 525 kts | 58° |
| 2026-05-05 11:22 | 24.49591 | 101.30584 | 36951 ft | 525 kts | 58° |
| 2026-05-05 11:22 | 24.53078 | 101.37637 | 36952 ft | 525 kts | 58° |
| 2026-05-05 11:23 | 24.56561 | 101.44695 | 36960 ft | 525 kts | 58° |
| 2026-05-05 11:23 | 24.60009 | 101.51690 | 36969 ft | 524 kts | 58° |
| 2026-05-05 11:24 | 24.63488 | 101.58766 | 36976 ft | 527 kts | 58° |
| 2026-05-05 11:24 | 24.66904 | 101.65874 | 36985 ft | 525 kts | 58° |
| 2026-05-05 11:25 | 24.70340 | 101.72962 | 36994 ft | 524 kts | 58° |
| 2026-05-05 11:25 | 24.73753 | 101.80048 | 37007 ft | 525 kts | 59° |
| 2026-05-05 11:26 | 24.77171 | 101.87140 | 37015 ft | 524 kts | 59° |
| 2026-05-05 11:26 | 24.80584 | 101.94236 | 37024 ft | 525 kts | 59° |
| 2026-05-05 11:27 | 24.83999 | 102.01351 | 37022 ft | 525 kts | 59° |
| 2026-05-05 11:27 | 24.87405 | 102.08452 | 37034 ft | 524 kts | 59° |
| 2026-05-05 11:28 | 24.90804 | 102.15556 | 37042 ft | 523 kts | 59° |
| 2026-05-05 11:28 | 24.94202 | 102.22661 | 37055 ft | 524 kts | 59° |
| 2026-05-05 11:29 | 24.97594 | 102.29771 | 37069 ft | 524 kts | 59° |
| 2026-05-05 11:29 | 25.00966 | 102.36847 | 37080 ft | 524 kts | 59° |
| 2026-05-05 11:30 | 25.04353 | 102.43966 | 37080 ft | 524 kts | 59° |
| 2026-05-05 11:30 | 25.07765 | 102.51057 | 37097 ft | 522 kts | 53° |
| 2026-05-05 11:31 | 25.12252 | 102.57265 | 37108 ft | 518 kts | 45° |
| 2026-05-05 11:31 | 25.16190 | 102.62320 | 37115 ft | 518 kts | 46° |
| 2026-05-05 11:32 | 25.20844 | 102.68332 | 37118 ft | 518 kts | 46° |
| 2026-05-05 11:32 | 25.25520 | 102.74366 | 37121 ft | 517 kts | 46° |
| 2026-05-05 11:33 | 25.30961 | 102.81403 | 37119 ft | 518 kts | 46° |
| 2026-05-05 11:33 | 25.34871 | 102.86465 | 37123 ft | 517 kts | 46° |
| 2026-05-05 11:34 | 25.39537 | 102.92519 | 37121 ft | 517 kts | 47° |
| 2026-05-05 11:34 | 25.43632 | 102.99120 | 37110 ft | 521 kts | 53° |
| 2026-05-05 11:35 | 25.47638 | 103.05809 | 37103 ft | 521 kts | 53° |
| 2026-05-05 11:35 | 25.51608 | 103.12456 | 37099 ft | 521 kts | 53° |
| 2026-05-05 11:36 | 25.55605 | 103.19153 | 37087 ft | 521 kts | 53° |
| 2026-05-05 11:36 | 25.59597 | 103.25855 | 37078 ft | 522 kts | 53° |
| 2026-05-05 11:37 | 25.63596 | 103.32578 | 37067 ft | 521 kts | 53° |
| 2026-05-05 11:37 | 25.67582 | 103.39285 | 37068 ft | 522 kts | 53° |
| 2026-05-05 11:38 | 25.71580 | 103.46028 | 37049 ft | 522 kts | 53° |
| 2026-05-05 11:38 | 25.75569 | 103.52761 | 37041 ft | 522 kts | 53° |
| 2026-05-05 11:39 | 25.79559 | 103.59506 | 37029 ft | 522 kts | 53° |
| 2026-05-05 11:39 | 25.83524 | 103.66221 | 37016 ft | 523 kts | 53° |
| 2026-05-05 11:40 | 25.87509 | 103.72976 | 37004 ft | 523 kts | 53° |
| 2026-05-05 11:40 | 25.91496 | 103.79747 | 36996 ft | 524 kts | 53° |
| 2026-05-05 11:41 | 25.95481 | 103.86524 | 36982 ft | 524 kts | 53° |
| 2026-05-05 11:41 | 25.99476 | 103.93301 | 36973 ft | 523 kts | 52° |
| 2026-05-05 11:42 | 26.03530 | 104.00023 | 36963 ft | 523 kts | 53° |
| 2026-05-05 11:42 | 26.07541 | 104.06777 | 36952 ft | 523 kts | 53° |
| 2026-05-05 11:43 | 26.11582 | 104.13539 | 36940 ft | 524 kts | 52° |
| 2026-05-05 11:43 | 26.15594 | 104.20291 | 36929 ft | 524 kts | 52° |
| 2026-05-05 11:44 | 26.19607 | 104.27039 | 36910 ft | 526 kts | 52° |
| 2026-05-05 11:44 | 26.23645 | 104.33848 | 36887 ft | 525 kts | 53° |
| 2026-05-05 11:45 | 26.27669 | 104.40639 | 36876 ft | 526 kts | 52° |
| 2026-05-05 11:45 | 26.31694 | 104.47442 | 36871 ft | 526 kts | 52° |
| 2026-05-05 11:46 | 26.35722 | 104.54263 | 36854 ft | 526 kts | 52° |
| 2026-05-05 11:46 | 26.39732 | 104.61060 | 36831 ft | 525 kts | 52° |
| 2026-05-05 11:47 | 26.43741 | 104.67870 | 36845 ft | 525 kts | 52° |
| 2026-05-05 11:47 | 26.47727 | 104.74647 | 36822 ft | 525 kts | 52° |
| 2026-05-05 11:48 | 26.53731 | 104.84876 | 36817 ft | 525 kts | 52° |
| 2026-05-05 11:48 | 26.57726 | 104.91695 | 36818 ft | 524 kts | 51° |
| 2026-05-05 11:49 | 26.61716 | 104.98517 | 36819 ft | 525 kts | 51° |
| 2026-05-05 11:49 | 26.65382 | 105.05589 | 36822 ft | 530 kts | 61° |
| 2026-05-05 11:50 | 26.68407 | 105.13110 | 36822 ft | 529 kts | 61° |
| 2026-05-05 11:50 | 26.71423 | 105.20618 | 36825 ft | 529 kts | 61° |
| 2026-05-05 11:51 | 26.74439 | 105.28130 | 36835 ft | 529 kts | 61° |
| 2026-05-05 11:51 | 26.77445 | 105.35644 | 36839 ft | 529 kts | 61° |
| 2026-05-05 11:52 | 26.80439 | 105.43129 | 36841 ft | 529 kts | 61° |
| 2026-05-05 11:52 | 26.83439 | 105.50653 | 36848 ft | 530 kts | 61° |
| 2026-05-05 11:53 | 26.86443 | 105.58196 | 36854 ft | 529 kts | 61° |
| 2026-05-05 11:53 | 26.89431 | 105.65714 | 36858 ft | 528 kts | 61° |
| 2026-05-05 11:54 | 26.92425 | 105.73259 | 36858 ft | 531 kts | 61° |
| 2026-05-05 11:54 | 26.95416 | 105.80816 | 36845 ft | 530 kts | 61° |
| 2026-05-05 11:55 | 26.98403 | 105.88370 | 36853 ft | 531 kts | 61° |
| 2026-05-05 11:55 | 27.01399 | 105.95967 | 36862 ft | 532 kts | 61° |
| 2026-05-05 11:56 | 27.04411 | 106.03545 | 36871 ft | 530 kts | 57° |
| 2026-05-05 11:56 | 27.07754 | 106.10821 | 36859 ft | 530 kts | 58° |
| 2026-05-05 11:57 | 27.11104 | 106.18182 | 36866 ft | 529 kts | 57° |
| 2026-05-05 11:57 | 27.14481 | 106.25568 | 36874 ft | 530 kts | 58° |
| 2026-05-05 11:58 | 27.17850 | 106.32984 | 36881 ft | 528 kts | 57° |
| 2026-05-05 11:58 | 27.21178 | 106.40294 | 36869 ft | 528 kts | 57° |
| 2026-05-05 11:59 | 27.24518 | 106.47651 | 36874 ft | 529 kts | 57° |
| 2026-05-05 11:59 | 27.27863 | 106.55025 | 36873 ft | 528 kts | 57° |
| 2026-05-05 12:00 | 27.31196 | 106.62388 | 36876 ft | 528 kts | 57° |
| 2026-05-05 12:00 | 27.34530 | 106.69770 | 36879 ft | 529 kts | 57° |
| 2026-05-05 12:01 | 27.37859 | 106.77152 | 36874 ft | 528 kts | 57° |
| 2026-05-05 12:01 | 27.41160 | 106.84534 | 36868 ft | 527 kts | 57° |
| 2026-05-05 12:02 | 27.44454 | 106.91894 | 36865 ft | 527 kts | 57° |
| 2026-05-05 12:02 | 27.47746 | 106.99270 | 36867 ft | 527 kts | 57° |
| 2026-05-05 12:03 | 27.51052 | 107.06567 | 36873 ft | 526 kts | 57° |
| 2026-05-05 12:03 | 27.54374 | 107.13913 | 36871 ft | 525 kts | 57° |
| 2026-05-05 12:04 | 27.57677 | 107.21246 | 36869 ft | 525 kts | 57° |
| 2026-05-05 12:04 | 27.60983 | 107.28572 | 36869 ft | 524 kts | 57° |
| 2026-05-05 12:05 | 27.64284 | 107.35908 | 36874 ft | 524 kts | 57° |
| 2026-05-05 12:05 | 27.67575 | 107.43230 | 36873 ft | 523 kts | 57° |
| 2026-05-05 12:06 | 27.70861 | 107.50559 | 36878 ft | 523 kts | 57° |
| 2026-05-05 12:06 | 27.74141 | 107.57885 | 36855 ft | 523 kts | 57° |
| 2026-05-05 12:07 | 27.77415 | 107.65212 | 36856 ft | 522 kts | 57° |
| 2026-05-05 12:07 | 27.80660 | 107.72486 | 36861 ft | 521 kts | 57° |
| 2026-05-05 12:08 | 27.83928 | 107.79807 | 36863 ft | 521 kts | 56° |
| 2026-05-05 12:08 | 27.87282 | 107.87062 | 36859 ft | 520 kts | 56° |
| 2026-05-05 12:09 | 27.90588 | 107.94347 | 36859 ft | 520 kts | 56° |
| 2026-05-05 12:09 | 27.93893 | 108.01582 | 36863 ft | 520 kts | 56° |
| 2026-05-05 12:10 | 27.97214 | 108.08893 | 36861 ft | 518 kts | 56° |
| 2026-05-05 12:10 | 28.00496 | 108.16116 | 36859 ft | 520 kts | 56° |
| 2026-05-05 12:11 | 28.03794 | 108.23398 | 36851 ft | 519 kts | 56° |
| 2026-05-05 12:11 | 28.07085 | 108.30668 | 36860 ft | 519 kts | 56° |
| 2026-05-05 12:12 | 28.10374 | 108.37952 | 36847 ft | 519 kts | 56° |
| 2026-05-05 12:12 | 28.13651 | 108.45223 | 36851 ft | 517 kts | 56° |
| 2026-05-05 12:13 | 28.16931 | 108.52508 | 36850 ft | 519 kts | 56° |
| 2026-05-05 12:13 | 28.20206 | 108.59803 | 36849 ft | 519 kts | 56° |
| 2026-05-05 12:14 | 28.23476 | 108.67093 | 36855 ft | 519 kts | 56° |
| 2026-05-05 12:14 | 28.26738 | 108.74384 | 36849 ft | 518 kts | 56° |
| 2026-05-05 12:15 | 28.29990 | 108.81662 | 36857 ft | 517 kts | 56° |
| 2026-05-05 12:15 | 28.33233 | 108.88932 | 36853 ft | 516 kts | 56° |
| 2026-05-05 12:16 | 28.35926 | 108.94982 | 36858 ft | 516 kts | 57° |